createdAt,value
2018-04-13T00:02:14.389Z,96.30
2018-04-13T00:04:43.640Z,95.90
2018-04-13T00:07:12.925Z,95.70
2018-04-13T00:09:42.929Z,96.00
2018-04-13T00:12:12.173Z,96.00
2018-04-13T00:14:41.438Z,95.80
2018-04-13T00:17:11.515Z,95.40
2018-04-13T00:19:40.772Z,95.30
2018-04-13T00:22:10.144Z,95.00
2018-04-13T00:24:39.436Z,94.70
2018-04-13T00:27:08.685Z,94.50
2018-04-13T00:29:37.952Z,94.40
2018-04-13T00:32:07.207Z,94.30
2018-04-13T00:34:36.483Z,94.40
2018-04-13T00:37:05.825Z,94.30
2018-04-13T00:39:35.258Z,94.20
2018-04-13T00:42:04.514Z,94.40
2018-04-13T00:44:33.864Z,94.40
2018-04-13T00:47:04.104Z,94.40
2018-04-13T00:49:33.349Z,94.10
2018-04-13T00:52:02.622Z,93.70
2018-04-13T00:54:32.625Z,93.70
2018-04-13T00:57:01.901Z,93.60
2018-04-13T00:59:31.164Z,93.40
2018-04-13T01:02:00.458Z,93.40
2018-04-13T01:04:29.712Z,92.90
2018-04-13T01:06:59.754Z,92.60
2018-04-13T01:09:29.040Z,92.60
2018-04-13T01:11:58.288Z,92.40
2018-04-13T01:17:03.116Z,92.50
2018-04-13T01:19:32.388Z,92.20
2018-04-13T01:22:01.641Z,92.20
2018-04-13T01:24:30.904Z,91.70
2018-04-13T01:27:00.250Z,91.90
2018-04-13T01:29:29.537Z,92.00
2018-04-13T01:31:58.856Z,92.10
2018-04-13T01:34:28.128Z,92.50
2018-04-13T01:36:57.383Z,92.40
2018-04-13T01:39:26.689Z,92.70
2018-04-13T01:41:55.955Z,92.50
2018-04-13T01:44:25.222Z,92.70
2018-04-13T01:46:54.506Z,92.90
2018-04-13T01:49:23.777Z,92.70
2018-04-13T01:51:53.077Z,92.70
2018-04-13T01:54:22.325Z,92.80
2018-04-13T01:56:51.602Z,92.70
2018-04-13T01:59:21.620Z,92.50
2018-04-13T02:01:50.907Z,92.50
2018-04-13T02:04:21.162Z,92.60
2018-04-13T02:06:51.186Z,92.90
2018-04-13T02:09:20.461Z,92.80
2018-04-13T02:11:49.704Z,92.40
2018-04-13T02:14:18.984Z,92.50
2018-04-13T02:16:48.249Z,92.80
2018-04-13T02:19:17.602Z,93.00
2018-04-13T02:21:46.882Z,93.10
2018-04-13T02:24:16.913Z,93.20
2018-04-13T02:26:46.193Z,93.20
2018-04-13T02:29:15.641Z,93.20
2018-04-13T02:31:45.693Z,93.50
2018-04-13T02:34:14.952Z,93.50
2018-04-13T02:36:44.221Z,93.50
2018-04-13T02:39:14.325Z,93.60
2018-04-13T02:41:43.607Z,93.70
2018-04-13T02:44:12.907Z,93.70
2018-04-13T02:46:42.367Z,94.20
2018-04-13T02:49:11.635Z,93.90
2018-04-13T02:51:40.917Z,94.00
2018-04-13T02:54:10.185Z,94.00
2018-04-13T02:56:39.460Z,94.00
2018-04-13T02:59:08.737Z,93.90
2018-04-13T03:01:38.004Z,93.70
2018-04-13T03:04:07.288Z,93.90
2018-04-13T03:06:36.720Z,93.80
2018-04-13T03:09:06.006Z,93.70
2018-04-13T03:11:35.287Z,93.70
2018-04-13T03:14:04.771Z,92.90
2018-04-13T03:16:34.167Z,92.80
2018-04-13T03:19:04.212Z,92.60
2018-04-13T03:21:33.478Z,92.60
2018-04-13T03:24:03.628Z,92.60
2018-04-13T03:26:33.113Z,92.60
2018-04-13T03:29:02.402Z,92.70
2018-04-13T03:31:31.685Z,92.90
2018-04-13T03:34:01.234Z,93.10
2018-04-13T03:36:30.536Z,93.20
2018-04-13T03:38:59.793Z,93.20
2018-04-13T03:41:29.111Z,93.40
2018-04-13T03:43:58.398Z,93.50
2018-04-13T03:46:27.693Z,93.60
2018-04-13T03:48:56.967Z,93.50
2018-04-13T03:51:26.234Z,93.80
2018-04-13T03:53:56.300Z,93.60
2018-04-13T03:56:25.595Z,93.60
2018-04-13T03:58:54.872Z,93.40
2018-04-13T04:01:24.129Z,93.30
2018-04-13T04:03:53.405Z,93.10
2018-04-13T04:06:22.673Z,92.80
2018-04-13T04:08:51.960Z,92.90
2018-04-13T04:11:22.020Z,91.90
2018-04-13T04:13:51.298Z,91.80
2018-04-13T04:16:20.585Z,91.30
2018-04-13T04:18:50.881Z,91.10
2018-04-13T04:21:37.921Z,90.80
2018-04-13T04:24:25.528Z,90.60
2018-04-13T04:26:54.986Z,90.50
2018-04-13T04:29:24.260Z,90.30
2018-04-13T04:31:53.562Z,90.30
2018-04-13T04:34:23.612Z,89.50
2018-04-13T04:36:52.870Z,89.80
2018-04-13T04:39:22.485Z,89.00
2018-04-13T04:41:52.532Z,88.00
2018-04-13T04:44:21.824Z,87.80
2018-04-13T04:46:51.108Z,88.20
2018-04-13T04:49:20.357Z,87.90
2018-04-13T04:51:49.634Z,86.80
2018-04-13T04:54:18.904Z,87.20
2018-04-13T04:56:48.182Z,87.10
2018-04-13T04:59:17.442Z,86.50
2018-04-13T05:01:46.737Z,86.30
2018-04-13T05:04:16.035Z,86.60
2018-04-13T05:06:45.318Z,86.50
2018-04-13T05:09:14.575Z,85.60
2018-04-13T05:11:43.851Z,85.00
2018-04-13T05:14:13.120Z,83.50
2018-04-13T05:16:43.145Z,82.50
2018-04-13T05:19:12.424Z,82.40
2018-04-13T05:21:41.697Z,82.80
2018-04-13T05:24:10.984Z,82.80
2018-04-13T05:26:40.458Z,82.10
2018-04-13T05:29:09.735Z,81.20
2018-04-13T05:31:38.999Z,80.80
2018-04-13T05:34:08.308Z,79.80
2018-04-13T05:36:37.725Z,78.90
2018-04-13T05:39:07.019Z,78.00
2018-04-13T05:41:36.282Z,77.60
2018-04-13T05:44:05.553Z,76.30
2018-04-13T05:46:35.468Z,75.00
2018-04-13T05:49:04.758Z,74.50
2018-04-13T05:51:34.025Z,74.80
2018-04-13T05:54:03.270Z,74.90
2018-04-13T05:56:32.548Z,73.30
2018-04-13T05:59:01.841Z,73.50
2018-04-13T06:01:31.203Z,72.90
2018-04-13T06:04:01.217Z,72.90
2018-04-13T06:06:30.714Z,72.90
2018-04-13T06:08:59.978Z,72.50
2018-04-13T06:11:29.261Z,71.60
2018-04-13T06:13:58.549Z,70.90
2018-04-13T06:16:27.844Z,70.40
2018-04-13T06:18:57.093Z,70.30
2018-04-13T06:21:26.327Z,70.00
2018-04-13T06:23:55.604Z,69.40
2018-04-13T06:26:24.844Z,70.00
2018-04-13T06:28:54.116Z,68.10
2018-04-13T06:31:24.144Z,66.10
2018-04-13T06:33:53.399Z,66.10
2018-04-13T06:36:22.693Z,67.00
2018-04-13T06:38:51.973Z,66.40
2018-04-13T06:41:21.234Z,65.10
2018-04-13T06:43:50.501Z,65.40
2018-04-13T06:46:19.775Z,66.60
2018-04-13T06:48:49.121Z,66.60
2018-04-13T06:51:18.978Z,66.50
2018-04-13T06:53:48.257Z,68.00
2018-04-13T06:56:18.293Z,68.80
2018-04-13T06:58:47.561Z,68.80
2018-04-13T07:01:16.938Z,68.50
2018-04-13T07:03:46.181Z,68.00
2018-04-13T07:06:15.466Z,70.00
2018-04-13T07:08:44.765Z,69.70
2018-04-13T07:11:14.713Z,69.30
2018-04-13T07:13:43.995Z,68.50
2018-04-13T07:16:13.422Z,68.70
2018-04-13T07:18:43.433Z,71.90
2018-04-13T07:21:12.728Z,71.90
2018-04-13T07:23:41.974Z,73.00
2018-04-13T07:26:11.252Z,72.70
2018-04-13T07:28:41.311Z,74.40
2018-04-13T07:31:10.577Z,74.40
2018-04-13T07:33:40.105Z,75.40
2018-04-13T07:36:09.123Z,71.60
2018-04-13T07:38:38.421Z,72.30
2018-04-13T07:41:07.700Z,73.10
2018-04-13T07:43:36.978Z,71.70
2018-04-13T07:46:07.015Z,73.00
2018-04-13T07:48:36.599Z,73.00
2018-04-13T07:51:05.664Z,73.80
2018-04-13T07:53:35.315Z,74.40
2018-04-13T07:56:06.061Z,73.90
2018-04-13T07:58:35.492Z,73.90
2018-04-13T08:01:04.630Z,73.70
2018-04-13T08:03:33.908Z,74.60
2018-04-13T08:06:03.145Z,75.20
2018-04-13T08:08:33.172Z,75.10
2018-04-13T08:11:02.443Z,75.10
2018-04-13T08:13:31.712Z,76.40
2018-04-13T08:16:00.990Z,76.00
2018-04-13T08:18:30.340Z,75.80
2018-04-13T08:21:01.130Z,76.70
2018-04-13T08:23:30.378Z,76.70
2018-04-13T08:25:59.631Z,77.70
2018-04-13T08:28:28.889Z,79.40
2018-04-13T08:30:59.078Z,81.00
2018-04-13T08:33:28.351Z,80.40
2018-04-13T08:35:57.686Z,81.40
2018-04-13T08:38:26.968Z,82.30
2018-04-13T08:40:56.240Z,82.90
2018-04-13T08:43:26.386Z,84.60
2018-04-13T08:45:56.466Z,84.50
2018-04-13T08:48:26.517Z,89.30
2018-04-13T08:50:55.797Z,89.30
2018-04-13T08:53:25.105Z,91.20
2018-04-13T08:55:54.543Z,91.60
2018-04-13T08:58:23.803Z,92.00
2018-04-13T09:00:53.091Z,91.90
2018-04-13T09:03:23.214Z,91.60
2018-04-13T09:05:53.250Z,92.70
2018-04-13T09:08:22.496Z,93.00
2018-04-13T09:10:51.766Z,92.50
2018-04-13T09:13:21.156Z,94.30
2018-04-13T09:15:51.935Z,93.60
2018-04-13T09:18:21.472Z,93.60
2018-04-13T09:20:50.759Z,94.00
2018-04-13T09:23:20.075Z,96.00
2018-04-13T09:25:49.327Z,97.10
2018-04-13T09:28:18.593Z,97.30
2018-04-13T09:30:47.931Z,99.10
2018-04-13T09:33:17.210Z,99.90
2018-04-13T09:35:46.466Z,99.90
2018-04-13T09:38:15.753Z,99.90
2018-04-13T09:40:45.025Z,99.90
2018-04-13T09:43:14.299Z,99.90
2018-04-13T09:45:44.341Z,99.90
2018-04-13T09:48:13.716Z,99.90
2018-04-13T09:50:43.796Z,99.90
2018-04-13T09:53:13.152Z,99.90
2018-04-13T09:55:43.177Z,99.90
2018-04-13T09:58:12.433Z,99.90
2018-04-13T10:00:41.709Z,99.90
2018-04-13T10:03:16.548Z,99.90
2018-04-13T10:05:45.838Z,99.90
2018-04-13T10:08:15.100Z,99.90
2018-04-13T10:10:45.141Z,99.90
2018-04-13T10:13:14.398Z,99.90
2018-04-13T10:15:43.682Z,99.90
2018-04-13T10:18:12.952Z,99.90
2018-04-13T10:20:42.208Z,99.90
2018-04-13T10:23:12.247Z,99.90
2018-04-13T10:25:41.500Z,99.90
2018-04-13T10:28:11.749Z,99.90
2018-04-13T10:30:41.013Z,99.90
2018-04-13T10:33:10.310Z,99.90
2018-04-13T10:35:39.654Z,99.90
2018-04-13T10:38:08.892Z,99.90
2018-04-13T10:40:38.162Z,99.90
2018-04-13T10:43:07.536Z,99.90
2018-04-13T10:45:37.009Z,99.90
2018-04-13T10:48:06.309Z,99.90
2018-04-13T10:50:35.584Z,99.90
2018-04-13T10:53:04.959Z,99.90
2018-04-13T10:55:34.255Z,99.90
2018-04-13T10:58:03.530Z,99.90
2018-04-13T11:00:32.831Z,99.90
2018-04-13T11:03:02.248Z,99.90
2018-04-13T11:05:31.481Z,99.90
2018-04-13T11:08:00.914Z,99.90
2018-04-13T11:10:30.200Z,99.90
2018-04-13T11:12:59.500Z,99.90
2018-04-13T11:15:28.755Z,99.90
2018-04-13T11:17:58.816Z,99.90
2018-04-13T11:20:28.127Z,99.90
2018-04-13T11:22:57.397Z,99.90
2018-04-13T11:25:26.688Z,99.90
2018-04-13T11:27:55.948Z,99.90
2018-04-13T11:30:25.220Z,99.90
2018-04-13T11:32:55.160Z,99.90
2018-04-13T11:35:24.462Z,99.90
2018-04-13T11:37:53.718Z,99.90
2018-04-13T11:40:23.008Z,99.90
2018-04-13T11:42:52.307Z,99.90
2018-04-13T11:45:21.570Z,99.90
2018-04-13T11:47:50.868Z,99.90
2018-04-13T11:50:20.269Z,99.90
2018-04-13T11:52:50.170Z,99.90
2018-04-13T11:55:20.197Z,99.90
2018-04-13T11:57:49.489Z,99.90
2018-04-13T12:00:18.753Z,99.90
2018-04-13T12:02:48.059Z,99.90
2018-04-13T12:05:17.546Z,99.90
2018-04-13T12:07:46.851Z,99.90
2018-04-13T12:10:16.163Z,99.90
2018-04-13T12:12:45.456Z,99.90
2018-04-13T12:15:14.854Z,99.90
2018-04-13T12:17:44.137Z,99.90
2018-04-13T12:20:13.413Z,99.90
2018-04-13T12:22:42.711Z,99.90
2018-04-13T12:25:11.993Z,99.30
2018-04-13T12:27:41.533Z,99.30
2018-04-13T12:30:10.793Z,98.80
2018-04-13T12:32:40.081Z,98.80
2018-04-13T12:35:09.405Z,97.20
2018-04-13T12:37:38.644Z,97.10
2018-04-13T12:40:07.927Z,97.20
2018-04-13T12:42:37.204Z,97.20
2018-04-13T12:45:06.485Z,97.50
2018-04-13T12:47:35.735Z,96.80
2018-04-13T12:50:04.998Z,97.30
2018-04-13T12:52:34.330Z,97.50
2018-04-13T12:55:03.846Z,97.20
2018-04-13T12:57:32.922Z,97.60
2018-04-13T13:00:02.258Z,97.60
2018-04-13T13:02:32.505Z,97.40
2018-04-13T13:05:01.739Z,97.40
2018-04-13T13:07:31.068Z,97.40
2018-04-13T13:10:00.488Z,97.90
2018-04-13T13:12:29.764Z,97.70
2018-04-13T13:14:59.048Z,98.00
2018-04-13T13:17:28.323Z,98.40
2018-04-13T13:19:57.589Z,98.30
2018-04-13T13:22:26.852Z,99.00
2018-04-13T13:24:56.183Z,98.40
2018-04-13T13:27:25.420Z,99.30
2018-04-13T13:29:55.474Z,99.00
2018-04-13T13:32:24.960Z,99.00
2018-04-13T13:34:54.215Z,99.00
2018-04-13T13:37:23.672Z,98.70
2018-04-13T13:39:53.696Z,99.70
2018-04-13T13:42:23.049Z,99.50
2018-04-13T13:44:52.340Z,99.90
2018-04-13T13:47:21.648Z,99.90
2018-04-13T13:49:51.186Z,99.90
2018-04-13T13:52:20.456Z,99.90
2018-04-13T13:54:49.779Z,99.90
2018-04-13T13:57:18.992Z,99.90
2018-04-13T13:59:48.383Z,99.90
2018-04-13T14:02:17.828Z,99.90
2018-04-13T14:04:47.096Z,99.90
2018-04-13T14:07:16.389Z,99.90
2018-04-13T14:09:45.637Z,99.90
2018-04-13T14:12:14.899Z,99.90
2018-04-13T14:14:44.821Z,99.90
2018-04-13T14:17:14.097Z,99.90
2018-04-13T14:19:43.381Z,99.90
2018-04-13T14:22:12.673Z,99.90
2018-04-13T14:24:41.967Z,99.90
2018-04-13T14:27:11.264Z,99.90
2018-04-13T14:29:40.753Z,99.90
2018-04-13T14:32:10.027Z,99.90
2018-04-13T14:34:39.313Z,99.90
2018-04-13T14:37:08.607Z,99.90
2018-04-13T14:39:37.894Z,99.90
2018-04-13T14:42:07.173Z,99.90
2018-04-13T14:44:37.231Z,99.90
2018-04-13T14:47:06.537Z,99.90
2018-04-13T14:49:35.827Z,99.90
2018-04-13T14:52:05.116Z,99.90
2018-04-13T14:54:34.383Z,99.90
2018-04-13T14:57:03.680Z,99.90
2018-04-13T14:59:34.384Z,99.90
2018-04-13T15:02:03.664Z,99.90
2018-04-13T15:04:32.969Z,99.90
2018-04-13T15:07:02.252Z,99.90
2018-04-13T15:09:32.209Z,99.90
2018-04-13T15:12:01.505Z,99.90
2018-04-13T15:14:30.909Z,99.90
2018-04-13T15:17:00.219Z,99.90
2018-04-13T15:19:29.505Z,99.90
2018-04-13T15:21:58.759Z,99.90
2018-04-13T15:24:28.048Z,99.90
2018-04-13T15:26:57.333Z,99.90
2018-04-13T15:29:26.638Z,99.90
2018-04-13T15:31:57.403Z,99.90
2018-04-13T15:34:27.555Z,99.90
2018-04-13T15:36:56.837Z,99.90
2018-04-13T15:39:26.084Z,99.90
2018-04-13T15:41:55.346Z,99.90
2018-04-13T15:44:24.747Z,99.90
2018-04-13T15:46:54.293Z,99.90
2018-04-13T15:49:23.569Z,99.90
2018-04-13T15:51:52.937Z,99.90
2018-04-13T15:54:22.977Z,99.90
2018-04-13T15:56:52.994Z,99.90
2018-04-13T15:59:22.291Z,99.90
2018-04-13T16:01:51.542Z,99.90
2018-04-13T16:04:20.826Z,99.90
2018-04-13T16:06:50.109Z,99.90
2018-04-13T16:09:19.324Z,99.90
2018-04-13T16:11:48.700Z,99.90
2018-04-13T16:14:17.987Z,99.90
2018-04-13T16:16:48.049Z,99.90
2018-04-13T16:19:17.309Z,99.90
2018-04-13T16:21:46.597Z,99.90
2018-04-13T16:24:15.865Z,99.90
2018-04-13T16:26:45.172Z,99.90
2018-04-13T16:29:14.412Z,99.90
2018-04-13T16:31:43.670Z,99.90
2018-04-13T16:34:12.967Z,99.90
2018-04-13T16:36:42.241Z,99.90
2018-04-13T16:39:11.528Z,99.90
2018-04-13T16:41:40.805Z,99.90
2018-04-13T16:44:10.236Z,99.90
2018-04-13T16:46:39.492Z,99.90
2018-04-13T16:49:08.793Z,99.90
2018-04-13T16:51:38.097Z,99.90
2018-04-13T16:54:07.382Z,99.90
2018-04-13T16:56:36.657Z,99.90
2018-04-13T16:59:05.948Z,99.90
2018-04-13T17:01:35.260Z,99.90
2018-04-13T17:04:04.540Z,99.90
2018-04-13T17:06:34.739Z,99.90
2018-04-13T17:09:03.968Z,99.90
2018-04-13T17:11:33.236Z,99.90
2018-04-13T17:14:02.508Z,99.90
2018-04-13T17:16:32.455Z,99.90
2018-04-13T17:19:02.588Z,99.90
2018-04-13T17:21:31.886Z,99.90
2018-04-13T17:24:01.162Z,99.90
2018-04-13T17:26:31.170Z,99.90
2018-04-13T17:29:00.464Z,99.90
2018-04-13T17:31:29.716Z,99.90
2018-04-13T17:33:58.996Z,99.90
2018-04-13T17:36:28.284Z,99.90
2018-04-13T17:38:58.345Z,99.90
2018-04-13T17:41:27.639Z,99.90
2018-04-13T17:43:57.085Z,99.90
2018-04-13T17:46:26.365Z,99.90
2018-04-13T17:49:05.100Z,99.90
2018-04-13T17:51:37.521Z,99.90
2018-04-13T17:54:14.364Z,99.90
2018-04-13T17:56:43.846Z,99.90
2018-04-13T17:59:13.356Z,99.90
2018-04-13T18:01:42.638Z,99.90
2018-04-13T18:04:11.955Z,99.90
2018-04-13T18:06:41.300Z,99.90
2018-04-13T18:09:10.644Z,99.90
2018-04-13T18:11:39.959Z,99.90
2018-04-13T18:14:09.223Z,99.90
2018-04-13T18:16:38.477Z,99.90
2018-04-13T18:19:07.786Z,99.90
2018-04-13T18:21:37.092Z,99.90
2018-04-13T18:24:06.399Z,99.90
2018-04-13T18:26:35.664Z,99.90
2018-04-13T18:29:04.996Z,99.90
2018-04-13T18:31:34.252Z,99.90
2018-04-13T18:34:03.519Z,99.90
2018-04-13T18:36:32.952Z,99.90
2018-04-13T18:39:02.298Z,99.90
2018-04-13T18:41:31.835Z,99.90
2018-04-13T18:44:01.878Z,99.90
2018-04-13T18:46:31.164Z,99.90
2018-04-13T18:49:00.455Z,99.90
2018-04-13T18:51:29.763Z,99.90
2018-04-13T18:53:59.072Z,99.90
2018-04-13T18:56:28.471Z,99.90
2018-04-13T18:58:58.517Z,99.90
2018-04-13T19:01:27.805Z,99.90
2018-04-13T19:03:57.093Z,99.90
2018-04-13T19:06:27.154Z,99.90
2018-04-13T19:08:56.428Z,99.90
2018-04-13T19:11:26.153Z,99.90
2018-04-13T19:13:57.397Z,99.90
2018-04-13T19:16:26.722Z,99.90
2018-04-13T19:18:55.999Z,99.90
2018-04-13T19:21:26.100Z,99.90
2018-04-13T19:23:55.397Z,99.90
2018-04-13T19:26:24.973Z,99.90
2018-04-13T19:28:55.027Z,99.90
2018-04-13T19:31:24.335Z,99.90
2018-04-13T19:33:53.637Z,99.90
2018-04-13T19:36:23.125Z,99.90
2018-04-13T19:38:53.050Z,99.90
2018-04-13T19:41:22.341Z,99.90
2018-04-13T19:43:55.894Z,99.90
2018-04-13T19:46:26.365Z,99.90
2018-04-13T19:48:55.849Z,99.90
2018-04-13T19:51:25.131Z,99.90
2018-04-13T19:53:54.452Z,99.90
2018-04-13T19:56:23.812Z,99.90
2018-04-13T19:58:53.202Z,99.90
2018-04-13T20:01:22.527Z,99.90
2018-04-13T20:03:51.878Z,99.90
2018-04-13T20:06:21.162Z,99.90
2018-04-13T20:08:50.434Z,99.90
2018-04-13T20:11:21.289Z,99.90
2018-04-13T20:13:50.569Z,99.90
2018-04-13T20:16:23.400Z,99.90
2018-04-13T20:18:53.479Z,99.90
2018-04-13T20:21:22.785Z,99.90
2018-04-13T20:23:52.056Z,99.90
2018-04-13T20:26:21.422Z,99.90
2018-04-13T20:28:50.845Z,99.90
2018-04-13T20:31:20.937Z,99.90
2018-04-13T20:33:50.235Z,99.90
2018-04-13T20:36:19.502Z,99.90
2018-04-13T20:38:48.815Z,99.90
2018-04-13T20:41:18.112Z,99.90
2018-04-13T20:43:47.443Z,99.90
2018-04-13T20:46:16.757Z,99.90
2018-04-13T20:48:46.079Z,99.90
2018-04-13T20:51:16.141Z,99.90
2018-04-13T20:53:45.470Z,99.90
2018-04-13T20:56:14.750Z,99.90
2018-04-13T20:58:44.144Z,99.90
2018-04-13T21:01:13.441Z,99.90
2018-04-13T21:03:42.700Z,99.90
2018-04-13T21:06:12.755Z,99.90
2018-04-13T21:08:42.802Z,99.90
2018-04-13T21:11:12.097Z,99.90
2018-04-13T21:13:41.415Z,99.90
2018-04-13T21:16:10.711Z,99.90
2018-04-13T21:18:39.973Z,99.90
2018-04-13T21:21:09.267Z,99.90
2018-04-13T21:23:38.532Z,99.90
2018-04-13T21:26:07.846Z,99.90
2018-04-13T21:28:37.147Z,99.90
2018-04-13T21:31:08.030Z,99.90
2018-04-13T21:33:37.347Z,99.90
2018-04-13T21:36:06.655Z,99.90
2018-04-13T21:38:35.917Z,99.90
2018-04-13T21:41:05.979Z,99.90
2018-04-13T21:43:35.240Z,99.90
2018-04-13T21:46:05.327Z,99.90
2018-04-13T21:48:34.621Z,99.90
2018-04-13T21:51:03.880Z,99.90
2018-04-13T21:53:33.193Z,99.90
2018-04-13T21:56:02.691Z,99.90
2018-04-13T21:58:31.997Z,99.90
2018-04-13T22:01:01.285Z,99.90
2018-04-13T22:03:30.556Z,99.90
2018-04-13T22:05:59.835Z,99.90
2018-04-13T22:08:29.153Z,99.90
2018-04-13T22:10:59.025Z,99.90
2018-04-13T22:13:33.167Z,99.90
2018-04-13T22:16:02.460Z,99.90
2018-04-13T22:18:31.725Z,99.90
2018-04-13T22:21:00.993Z,99.90
2018-04-13T22:23:30.283Z,99.90
2018-04-13T22:25:59.590Z,99.90
2018-04-13T22:28:28.889Z,99.90
2018-04-13T22:30:58.169Z,99.90
2018-04-13T22:33:27.501Z,99.90
2018-04-13T22:35:56.847Z,99.90
2018-04-13T22:38:26.137Z,99.90
2018-04-13T22:40:55.553Z,99.90
2018-04-13T22:43:24.805Z,99.90
2018-04-13T22:45:54.867Z,99.90
2018-04-13T22:48:24.236Z,99.90
2018-04-13T22:50:53.541Z,99.90
2018-04-13T22:53:23.569Z,99.90
2018-04-13T22:55:52.848Z,99.90
2018-04-13T22:58:22.313Z,99.90
2018-04-13T23:00:51.604Z,99.90
2018-04-13T23:03:21.071Z,99.90
2018-04-13T23:05:50.309Z,99.90
2018-04-13T23:08:19.700Z,99.90
2018-04-13T23:10:48.950Z,99.90
2018-04-13T23:13:18.322Z,99.90
2018-04-13T23:15:47.603Z,99.90
2018-04-13T23:18:16.911Z,99.90
2018-04-13T23:20:46.313Z,99.90
2018-04-13T23:23:15.601Z,99.90
2018-04-13T23:25:45.601Z,99.90
2018-04-13T23:28:15.763Z,99.90
2018-04-13T23:30:45.038Z,99.90
2018-04-13T23:33:14.286Z,99.90
2018-04-13T23:35:43.565Z,99.90
2018-04-13T23:38:12.841Z,99.90
2018-04-13T23:40:42.135Z,99.90
2018-04-13T23:43:11.472Z,99.90
2018-04-13T23:45:40.710Z,99.90
2018-04-13T23:48:09.988Z,99.90
2018-04-13T23:50:39.233Z,99.90
2018-04-13T23:53:09.288Z,99.90
2018-04-13T23:55:39.100Z,99.90
2018-04-13T23:58:08.360Z,99.90
